Kihei, HI

4:02 PM HST on September 14, 2014 (GMT -1000)
Lanai City | Change Station
CLOSE
Current Station
Airport
Location: Lanai City,
Elevation: 1309 ft
Nearby Weather Stations
Active Advisory: High Surf Advisory

Elev 1309 ft 20.79 °N, 156.95 °W | Updated 6 minutes ago

Scattered Clouds
Scattered Clouds
84 °F
Feels Like 88 °F
N
8
Wind Variable Wind from WSW

Today
High -- | Low -- °F
--% Chance of Precip.
Yesterday
High -- | Low -- °F
Precip. -- in
6:12 AM 6:29 PM
Waning Gibbous, 60% visible
Pressure 29.88 in
Visibility 10.0 miles
Clouds Few 3000 ft
Scattered Clouds 4200 ft
Heat Index 88 °F
Dew Point 70 °F
Humidity 63%
Rainfall 0.00 in
Snow Depth Not available.
UV 3 out of 12
Pollen Not available.
Air Quality Not available.
Flu Activity Not available.
METAR PHNY 150156Z AUTO 25007KT 10SM FEW030 SCT042 29/21 A2994 RMK AO2 TSNO T02880211 SLP116 $

More Conditions Fewer Conditions

Pressure 29.88 in
Visibility 10.0 miles
Clouds Few 3000 ft
Scattered Clouds 4200 ft
Heat Index 88 °F
Dew Point 70 °F
Humidity 63%
Rainfall 0.00 in
Snow Depth Not available.
UV 3 out of 12
Pollen Not available.
Air Quality Not available.
Flu Activity Not available.
METAR PHNY 150156Z AUTO 25007KT 10SM FEW030 SCT042 29/21 A2994 RMK AO2 TSNO T02880211 SLP116 $

More Conditions Fewer Conditions

10-Day Weather Forecast

Almanac

Astronomy

Sep. 14, 2014 Rise Set
Actual Time 6:12 AM HST 6:29 PM HST
Civil Twilight 5:50 AM HST 6:51 PM HST
Nautical Twilight 5:24 AM HST 7:17 PM HST
Astronomical Twilight 4:58 AM HST 7:43 PM HST
Moon 11:14 PM HST (9/14) 11:46 AM HST (9/14)
Length of Visible Light 13h 00m
Length of Day
12h 16m
Tomorrow will be 1m 10s shorter.
Waning Gibbous, 60% of the Moon is Illuminated
Today
Waning Gibbous
Sep 15
Last Quarter
Sep 24
New
Oct 1
First Quarter
Oct 8
Full

Today's Extremes

State Highs State Lows

Community

WunderPhotos

Upload Photos

1,753,371 photos uploaded!

Nearby

Snow Depth

Station Depth Elevation
No new snow has been reported.

Earthquake Activity

City Distance Mag. Time & Date
No recent earthquake activity has been reported nearby.
Minimum magnitude displayed is 2.5.

Coastal Water Temperatures

Place Temperature
No Stations Reporting

Nearby Weather Stations